sensor_id;sensor_type;location;lat;lon;timestamp;pressure;altitude;pressure_sealevel;temperature;humidity
70833;BME280;58452;59.418;17.962;2023-02-12T00:00:41;102603.03;;;-3.96;81.16
70833;BME280;58452;59.418;17.962;2023-02-12T00:03:07;102610.63;;;-4.02;80.58
70833;BME280;58452;59.418;17.962;2023-02-12T00:05:35;102600.50;;;-3.85;80.61
70833;BME280;58452;59.418;17.962;2023-02-12T00:08:01;102603.84;;;-3.78;79.77
70833;BME280;58452;59.418;17.962;2023-02-12T00:10:26;102607.16;;;-3.70;79.60
70833;BME280;58452;59.418;17.962;2023-02-12T00:12:53;102601.31;;;-3.77;79.59
70833;BME280;58452;59.418;17.962;2023-02-12T00:15:18;102598.84;;;-3.93;79.24
70833;BME280;58452;59.418;17.962;2023-02-12T00:17:44;102589.59;;;-3.87;79.80
70833;BME280;58452;59.418;17.962;2023-02-12T00:20:10;102581.16;;;-3.78;79.20
70833;BME280;58452;59.418;17.962;2023-02-12T00:22:35;102578.63;;;-3.78;79.16
70833;BME280;58452;59.418;17.962;2023-02-12T00:25:01;102579.44;;;-3.73;79.46
70833;BME280;58452;59.418;17.962;2023-02-12T00:27:26;102577.78;;;-3.76;79.01
70833;BME280;58452;59.418;17.962;2023-02-12T00:29:51;102564.28;;;-3.66;78.80
70833;BME280;58452;59.418;17.962;2023-02-12T00:32:17;102561.69;;;-3.55;78.89
70833;BME280;58452;59.418;17.962;2023-02-12T00:34:46;102560.84;;;-3.51;79.24
70833;BME280;58452;59.418;17.962;2023-02-12T00:37:13;102557.41;;;-3.41;79.29
70833;BME280;58452;59.418;17.962;2023-02-12T00:39:38;102548.13;;;-3.36;78.75
70833;BME280;58452;59.418;17.962;2023-02-12T00:42:04;102552.31;;;-3.33;78.37
70833;BME280;58452;59.418;17.962;2023-02-12T00:44:30;102548.94;;;-3.29;78.37
70833;BME280;58452;59.418;17.962;2023-02-12T00:46:55;102548.06;;;-3.24;78.16
70833;BME280;58452;59.418;17.962;2023-02-12T00:49:27;102552.31;;;-3.29;77.96
70833;BME280;58452;59.418;17.962;2023-02-12T00:51:53;102550.72;;;-3.42;78.46
70833;BME280;58452;59.418;17.962;2023-02-12T00:54:18;102545.63;;;-3.36;78.79
70833;BME280;58452;59.418;17.962;2023-02-12T00:56:44;102556.56;;;-3.34;78.09
70833;BME280;58452;59.418;17.962;2023-02-12T00:59:09;102556.56;;;-3.37;78.07
70833;BME280;58452;59.418;17.962;2023-02-12T01:01:34;102561.66;;;-3.46;78.47
70833;BME280;58452;59.418;17.962;2023-02-12T01:04:00;102554.09;;;-3.46;78.82
70833;BME280;58452;59.418;17.962;2023-02-12T01:06:25;102559.13;;;-3.43;78.61
70833;BME280;58452;59.418;17.962;2023-02-12T01:08:51;102559.09;;;-3.38;78.43
70833;BME280;58452;59.418;17.962;2023-02-12T01:11:17;102555.72;;;-3.34;78.32
70833;BME280;58452;59.418;17.962;2023-02-12T01:13:42;102555.69;;;-3.33;78.66
70833;BME280;58452;59.418;17.962;2023-02-12T01:16:16;102548.97;;;-3.31;77.98
70833;BME280;58452;59.418;17.962;2023-02-12T01:18:43;102554.78;;;-3.20;78.09
70833;BME280;58452;59.418;17.962;2023-02-12T01:21:14;102549.69;;;-3.14;77.47
70833;BME280;58452;59.418;17.962;2023-02-12T01:23:40;102547.13;;;-3.09;77.83
70833;BME280;58452;59.418;17.962;2023-02-12T01:26:07;102551.34;;;-3.10;77.64
70833;BME280;58452;59.418;17.962;2023-02-12T01:28:35;102549.75;;;-3.26;77.61
70833;BME280;58452;59.418;17.962;2023-02-12T01:31:01;102555.69;;;-3.27;77.76
70833;BME280;58452;59.418;17.962;2023-02-12T01:33:29;102559.00;;;-3.26;77.43
70833;BME280;58452;59.418;17.962;2023-02-12T01:35:55;102564.97;;;-3.41;77.92
70833;BME280;58452;59.418;17.962;2023-02-12T01:38:20;102565.78;;;-3.33;78.65
70833;BME280;58452;59.418;17.962;2023-02-12T01:40:46;102568.41;;;-3.51;78.18
70833;BME280;58452;59.418;17.962;2023-02-12T01:43:11;102568.41;;;-3.45;78.22
70833;BME280;58452;59.418;17.962;2023-02-12T01:45:46;102568.31;;;-3.37;78.53
70833;BME280;58452;59.418;17.962;2023-02-12T01:48:14;102560.72;;;-3.30;78.15
70833;BME280;58452;59.418;17.962;2023-02-12T01:50:43;102564.06;;;-3.26;78.04
70833;BME280;58452;59.418;17.962;2023-02-12T01:53:10;102574.28;;;-3.48;78.53
70833;BME280;58452;59.418;17.962;2023-02-12T01:55:37;102570.13;;;-3.62;79.52
70833;BME280;58452;59.418;17.962;2023-02-12T01:58:03;102559.97;;;-3.47;79.94
70833;BME280;58452;59.418;17.962;2023-02-12T02:00:29;102558.34;;;-3.54;79.94
70833;BME280;58452;59.418;17.962;2023-02-12T02:02:57;102559.16;;;-3.52;80.17
70833;BME280;58452;59.418;17.962;2023-02-12T02:05:34;102547.28;;;-3.32;80.31
70833;BME280;58452;59.418;17.962;2023-02-12T02:08:02;102537.94;;;-3.21;79.86
70833;BME280;58452;59.418;17.962;2023-02-12T02:10:28;102527.88;;;-3.25;79.54
70833;BME280;58452;59.418;17.962;2023-02-12T02:12:55;102534.63;;;-3.29;80.16
70833;BME280;58452;59.418;17.962;2023-02-12T02:15:41;102532.81;;;-3.12;79.95
70833;BME280;58452;59.418;17.962;2023-02-12T02:21:11;102539.59;;;-3.17;80.63
70833;BME280;58452;59.418;17.962;2023-02-12T02:27:04;102521.88;;;-3.09;80.01
70833;BME280;58452;59.418;17.962;2023-02-12T02:29:49;102526.00;;;-3.01;79.99
70833;BME280;58452;59.418;17.962;2023-02-12T02:32:31;102518.38;;;-2.91;79.15
70833;BME280;58452;59.418;17.962;2023-02-12T02:35:14;102510.03;;;-3.01;79.46
70833;BME280;58452;59.418;17.962;2023-02-12T02:43:28;102502.28;;;-2.80;78.79
70833;BME280;58452;59.418;17.962;2023-02-12T02:46:01;102506.50;;;-2.82;78.24
70833;BME280;58452;59.418;17.962;2023-02-12T02:48:45;102497.19;;;-2.78;78.74
70833;BME280;58452;59.418;17.962;2023-02-12T02:51:34;102503.94;;;-2.77;78.58
70833;BME280;58452;59.418;17.962;2023-02-12T02:54:31;102515.03;;;-2.93;79.17
70833;BME280;58452;59.418;17.962;2023-02-12T02:57:11;102520.84;;;-2.85;79.48
70833;BME280;58452;59.418;17.962;2023-02-12T02:59:42;102514.88;;;-2.78;78.98
70833;BME280;58452;59.418;17.962;2023-02-12T03:02:24;102524.13;;;-2.77;78.69
70833;BME280;58452;59.418;17.962;2023-02-12T03:04:55;102510.66;;;-2.76;78.79
70833;BME280;58452;59.418;17.962;2023-02-12T03:07:41;102503.00;;;-2.67;78.55
70833;BME280;58452;59.418;17.962;2023-02-12T03:10:15;102494.59;;;-2.69;77.82
70833;BME280;58452;59.418;17.962;2023-02-12T03:15:17;102496.22;;;-2.61;77.18
70833;BME280;58452;59.418;17.962;2023-02-12T03:17:47;102501.22;;;-2.58;77.38
70833;BME280;58452;59.418;17.962;2023-02-12T03:20:19;102493.56;;;-2.53;77.73
70833;BME280;58452;59.418;17.962;2023-02-12T03:22:57;102496.09;;;-2.52;77.68
70833;BME280;58452;59.418;17.962;2023-02-12T03:25:39;102486.88;;;-2.54;77.53
70833;BME280;58452;59.418;17.962;2023-02-12T03:28:09;102482.69;;;-2.58;78.02
70833;BME280;58452;59.418;17.962;2023-02-12T03:33:29;102474.16;;;-2.47;78.27
70833;BME280;58452;59.418;17.962;2023-02-12T03:45:02;102461.25;;;-2.25;78.20
70833;BME280;58452;59.418;17.962;2023-02-12T03:47:48;102463.63;;;-2.12;77.43
70833;BME280;58452;59.418;17.962;2023-02-12T03:50:16;102474.56;;;-2.10;77.77
70833;BME280;58452;59.418;17.962;2023-02-12T03:52:44;102471.16;;;-2.06;77.97
70833;BME280;58452;59.418;17.962;2023-02-12T03:55:11;102465.97;;;-1.97;77.17
70833;BME280;58452;59.418;17.962;2023-02-12T03:57:41;102456.56;;;-1.87;76.46
70833;BME280;58452;59.418;17.962;2023-02-12T04:00:12;102448.91;;;-1.82;76.63
70833;BME280;58452;59.418;17.962;2023-02-12T04:02:38;102447.13;;;-1.76;76.56
70833;BME280;58452;59.418;17.962;2023-02-12T04:05:05;102436.94;;;-1.71;76.50
70833;BME280;58452;59.418;17.962;2023-02-12T04:07:32;102441.09;;;-1.67;75.96
70833;BME280;58452;59.418;17.962;2023-02-12T04:09:57;102446.28;;;-1.75;76.15
70833;BME280;58452;59.418;17.962;2023-02-12T04:12:30;102439.47;;;-1.70;76.40
70833;BME280;58452;59.418;17.962;2023-02-12T04:17:47;102435.19;;;-1.66;75.82
70833;BME280;58452;59.418;17.962;2023-02-12T04:22:51;102433.66;;;-1.76;77.17
70833;BME280;58452;59.418;17.962;2023-02-12T04:28:39;102433.59;;;-1.73;77.31
70833;BME280;58452;59.418;17.962;2023-02-12T04:31:19;102439.41;;;-1.65;76.69
70833;BME280;58452;59.418;17.962;2023-02-12T04:34:10;102438.50;;;-1.63;76.91
70833;BME280;58452;59.418;17.962;2023-02-12T04:36:49;102441.94;;;-1.65;77.32
70833;BME280;58452;59.418;17.962;2023-02-12T04:39:22;102442.84;;;-1.71;76.97
70833;BME280;58452;59.418;17.962;2023-02-12T04:41:48;102448.59;;;-1.61;77.36
70833;BME280;58452;59.418;17.962;2023-02-12T04:44:26;102442.63;;;-1.57;77.89
70833;BME280;58452;59.418;17.962;2023-02-12T04:46:51;102434.13;;;-1.52;76.68
70833;BME280;58452;59.418;17.962;2023-02-12T04:49:19;102435.63;;;-1.40;76.89
70833;BME280;58452;59.418;17.962;2023-02-12T04:51:45;102437.44;;;-1.48;77.28
70833;BME280;58452;59.418;17.962;2023-02-12T04:54:12;102436.53;;;-1.44;76.96
70833;BME280;58452;59.418;17.962;2023-02-12T04:56:37;102420.47;;;-1.43;76.97
70833;BME280;58452;59.418;17.962;2023-02-12T04:59:03;102409.19;;;-1.24;76.49
70833;BME280;58452;59.418;17.962;2023-02-12T05:01:29;102401.47;;;-1.16;76.15
70833;BME280;58452;59.418;17.962;2023-02-12T05:03:55;102395.47;;;-1.11;75.95
70833;BME280;58452;59.418;17.962;2023-02-12T05:06:20;102396.25;;;-1.07;76.13
70833;BME280;58452;59.418;17.962;2023-02-12T05:08:45;102398.66;;;-1.00;75.34
70833;BME280;58452;59.418;17.962;2023-02-12T05:11:11;102392.03;;;-1.07;75.47
70833;BME280;58452;59.418;17.962;2023-02-12T05:13:37;102391.19;;;-1.09;76.21
70833;BME280;58452;59.418;17.962;2023-02-12T05:16:07;102376.66;;;-0.99;75.41
70833;BME280;58452;59.418;17.962;2023-02-12T05:18:33;102379.19;;;-0.98;75.74
70833;BME280;58452;59.418;17.962;2023-02-12T05:21:01;102381.72;;;-0.98;75.41
70833;BME280;58452;59.418;17.962;2023-02-12T05:23:28;102373.13;;;-0.90;75.35
70833;BME280;58452;59.418;17.962;2023-02-12T05:25:57;102366.50;;;-0.98;75.50
70833;BME280;58452;59.418;17.962;2023-02-12T05:28:22;102361.38;;;-0.94;76.05
70833;BME280;58452;59.418;17.962;2023-02-12T05:30:48;102356.22;;;-0.88;75.85
70833;BME280;58452;59.418;17.962;2023-02-12T05:33:13;102341.09;;;-0.94;76.20
70833;BME280;58452;59.418;17.962;2023-02-12T05:35:39;102342.59;;;-0.84;75.70
70833;BME280;58452;59.418;17.962;2023-02-12T05:38:04;102342.56;;;-0.83;75.76
70833;BME280;58452;59.418;17.962;2023-02-12T05:40:29;102337.66;;;-0.90;76.04
70833;BME280;58452;59.418;17.962;2023-02-12T05:42:55;102342.56;;;-0.81;76.03
70833;BME280;58452;59.418;17.962;2023-02-12T05:45:20;102335.88;;;-0.87;76.17
70833;BME280;58452;59.418;17.962;2023-02-12T05:47:46;102326.47;;;-0.80;76.18
70833;BME280;58452;59.418;17.962;2023-02-12T05:50:11;102338.69;;;-1.01;76.49
70833;BME280;58452;59.418;17.962;2023-02-12T05:52:36;102335.13;;;-0.90;75.88
70833;BME280;58452;59.418;17.962;2023-02-12T05:55:02;102337.78;;;-0.96;76.29
70833;BME280;58452;59.418;17.962;2023-02-12T05:57:27;102336.81;;;-0.91;76.83
70833;BME280;58452;59.418;17.962;2023-02-12T05:59:53;102335.44;;;-1.07;76.72
70833;BME280;58452;59.418;17.962;2023-02-12T06:02:18;102339.75;;;-1.14;77.45
70833;BME280;58452;59.418;17.962;2023-02-12T06:04:44;102345.13;;;-1.29;78.20
70833;BME280;58452;59.418;17.962;2023-02-12T06:07:09;102345.00;;;-1.21;78.28
70833;BME280;58452;59.418;17.962;2023-02-12T06:09:35;102351.69;;;-1.19;78.12
70833;BME280;58452;59.418;17.962;2023-02-12T06:12:01;102355.34;;;-1.35;78.82
70833;BME280;58452;59.418;17.962;2023-02-12T06:14:26;102346.84;;;-1.31;79.26
70833;BME280;58452;59.418;17.962;2023-02-12T06:16:52;102346.78;;;-1.28;78.49
70833;BME280;58452;59.418;17.962;2023-02-12T06:19:18;102340.16;;;-1.35;79.38
70833;BME280;58452;59.418;17.962;2023-02-12T06:21:43;102341.13;;;-1.40;79.05
70833;BME280;58452;59.418;17.962;2023-02-12T06:24:14;102339.44;;;-1.41;79.04
70833;BME280;58452;59.418;17.962;2023-02-12T06:26:40;102351.25;;;-1.42;79.76
70833;BME280;58452;59.418;17.962;2023-02-12T06:29:06;102341.25;;;-1.48;80.26
70833;BME280;58452;59.418;17.962;2023-02-12T06:31:34;102338.59;;;-1.42;80.36
70833;BME280;58452;59.418;17.962;2023-02-12T06:34:05;102337.63;;;-1.35;80.05
70833;BME280;58452;59.418;17.962;2023-02-12T06:36:30;102343.56;;;-1.36;80.18
70833;BME280;58452;59.418;17.962;2023-02-12T06:38:56;102333.47;;;-1.39;81.07
70833;BME280;58452;59.418;17.962;2023-02-12T06:41:22;102329.97;;;-1.32;80.37
70833;BME280;58452;59.418;17.962;2023-02-12T06:43:48;102330.94;;;-1.39;80.67
70833;BME280;58452;59.418;17.962;2023-02-12T06:46:14;102318.13;;;-1.30;80.71
70833;BME280;58452;59.418;17.962;2023-02-12T06:48:40;102321.31;;;-1.19;80.67
70833;BME280;58452;59.418;17.962;2023-02-12T06:51:16;102328.06;;;-1.19;80.40
70833;BME280;58452;59.418;17.962;2023-02-12T06:53:43;102321.47;;;-1.28;80.75
70833;BME280;58452;59.418;17.962;2023-02-12T06:56:10;102334.16;;;-1.29;81.00
70833;BME280;58452;59.418;17.962;2023-02-12T06:58:38;102325.53;;;-1.21;80.93
70833;BME280;58452;59.418;17.962;2023-02-12T07:01:20;102320.59;;;-1.25;81.63
70833;BME280;58452;59.418;17.962;2023-02-12T07:03:54;102316.25;;;-1.19;81.47
70833;BME280;58452;59.418;17.962;2023-02-12T07:06:20;102309.00;;;-0.94;80.68
70833;BME280;58452;59.418;17.962;2023-02-12T07:08:46;102309.72;;;-0.87;79.82
70833;BME280;58452;59.418;17.962;2023-02-12T07:11:12;102308.06;;;-0.88;79.71
70833;BME280;58452;59.418;17.962;2023-02-12T07:13:42;102300.31;;;-0.82;80.52
70833;BME280;58452;59.418;17.962;2023-02-12T07:16:11;102308.00;;;-0.87;80.87
70833;BME280;58452;59.418;17.962;2023-02-12T07:18:38;102302.31;;;-0.96;80.52
70833;BME280;58452;59.418;17.962;2023-02-12T07:21:04;102299.84;;;-1.00;81.62
70833;BME280;58452;59.418;17.962;2023-02-12T07:23:31;102300.47;;;-0.90;81.29
70833;BME280;58452;59.418;17.962;2023-02-12T07:25:57;102302.94;;;-0.85;81.45
70833;BME280;58452;59.418;17.962;2023-02-12T07:28:24;102304.91;;;-1.00;82.09
70833;BME280;58452;59.418;17.962;2023-02-12T07:30:50;102302.38;;;-1.00;82.33
70833;BME280;58452;59.418;17.962;2023-02-12T07:33:16;102309.69;;;-0.86;82.49
70833;BME280;58452;59.418;17.962;2023-02-12T07:35:41;102304.91;;;-1.01;82.44
70833;BME280;58452;59.418;17.962;2023-02-12T07:38:07;102310.59;;;-0.88;82.03
70833;BME280;58452;59.418;17.962;2023-02-12T07:40:33;102319.06;;;-0.89;82.21
70833;BME280;58452;59.418;17.962;2023-02-12T07:42:58;102305.47;;;-0.85;82.81
70833;BME280;58452;59.418;17.962;2023-02-12T07:45:24;102298.47;;;-0.74;82.54
70833;BME280;58452;59.418;17.962;2023-02-12T07:47:49;102303.38;;;-0.67;82.49
70833;BME280;58452;59.418;17.962;2023-02-12T07:50:15;102295.81;;;-0.68;82.42
70833;BME280;58452;59.418;17.962;2023-02-12T07:52:41;102293.41;;;-0.74;82.73
70833;BME280;58452;59.418;17.962;2023-02-12T07:55:06;102294.75;;;-0.58;82.92
70833;BME280;58452;59.418;17.962;2023-02-12T07:57:34;102286.84;;;-0.44;82.22
70833;BME280;58452;59.418;17.962;2023-02-12T07:59:59;102289.41;;;-0.46;81.69
70833;BME280;58452;59.418;17.962;2023-02-12T08:02:25;102289.63;;;-0.55;82.86
70833;BME280;58452;59.418;17.962;2023-02-12T08:04:56;102272.81;;;-0.61;82.39
70833;BME280;58452;59.418;17.962;2023-02-12T08:07:22;102281.19;;;-0.57;83.28
70833;BME280;58452;59.418;17.962;2023-02-12T08:09:47;102274.53;;;-0.61;83.34
70833;BME280;58452;59.418;17.962;2023-02-12T08:12:13;102270.28;;;-0.59;83.74
70833;BME280;58452;59.418;17.962;2023-02-12T08:14:38;102253.94;;;-0.47;83.45
70833;BME280;58452;59.418;17.962;2023-02-12T08:17:04;102240.28;;;-0.42;82.27
70833;BME280;58452;59.418;17.962;2023-02-12T08:19:30;102244.53;;;-0.42;83.48
70833;BME280;58452;59.418;17.962;2023-02-12T08:21:56;102244.19;;;-0.27;82.39
70833;BME280;58452;59.418;17.962;2023-02-12T08:24:22;102235.81;;;-0.31;82.48
70833;BME280;58452;59.418;17.962;2023-02-12T08:26:48;102233.78;;;-0.17;81.98
70833;BME280;58452;59.418;17.962;2023-02-12T08:29:16;102234.81;;;-0.25;82.34
70833;BME280;58452;59.418;17.962;2023-02-12T08:31:44;102238.94;;;-0.20;82.71
70833;BME280;58452;59.418;17.962;2023-02-12T08:34:24;102233.75;;;-0.15;82.84
70833;BME280;58452;59.418;17.962;2023-02-12T08:36:52;102231.09;;;-0.11;81.98
70833;BME280;58452;59.418;17.962;2023-02-12T08:39:18;102222.53;;;-0.07;81.92
70833;BME280;58452;59.418;17.962;2023-02-12T08:41:44;102217.53;;;-0.10;82.55
70833;BME280;58452;59.418;17.962;2023-02-12T08:44:10;102221.47;;;0.02;83.06
70833;BME280;58452;59.418;17.962;2023-02-12T08:46:38;102230.63;;;0.08;82.22
70833;BME280;58452;59.418;17.962;2023-02-12T08:49:07;102216.78;;;0.21;82.46
70833;BME280;58452;59.418;17.962;2023-02-12T08:51:36;102229.66;;;0.13;82.11
70833;BME280;58452;59.418;17.962;2023-02-12T08:54:05;102226.19;;;0.17;82.66
70833;BME280;58452;59.418;17.962;2023-02-12T08:56:33;102243.56;;;-0.02;83.50
70833;BME280;58452;59.418;17.962;2023-02-12T08:59:00;102252.78;;;0.03;83.23
70833;BME280;58452;59.418;17.962;2023-02-12T09:01:29;102256.59;;;0.19;83.24
70833;BME280;58452;59.418;17.962;2023-02-12T09:03:54;102261.44;;;0.28;83.49
70833;BME280;58452;59.418;17.962;2023-02-12T09:06:22;102262.94;;;0.36;83.44
70833;BME280;58452;59.418;17.962;2023-02-12T09:08:49;102256.13;;;0.37;82.88
70833;BME280;58452;59.418;17.962;2023-02-12T09:11:18;102255.88;;;0.46;83.17
70833;BME280;58452;59.418;17.962;2023-02-12T09:13:45;102247.75;;;0.33;83.00
70833;BME280;58452;59.418;17.962;2023-02-12T09:16:11;102257.97;;;0.30;84.17
70833;BME280;58452;59.418;17.962;2023-02-12T09:18:37;102250.16;;;0.38;83.63
70833;BME280;58452;59.418;17.962;2023-02-12T09:21:05;102244.59;;;0.58;83.36
70833;BME280;58452;59.418;17.962;2023-02-12T09:23:31;102249.59;;;0.59;82.70
70833;BME280;58452;59.418;17.962;2023-02-12T09:25:57;102248.84;;;0.56;83.24
70833;BME280;58452;59.418;17.962;2023-02-12T09:28:23;102251.91;;;0.68;83.38
70833;BME280;58452;59.418;17.962;2023-02-12T09:30:48;102240.16;;;0.64;83.19
70833;BME280;58452;59.418;17.962;2023-02-12T09:33:14;102234.75;;;0.76;83.14
70833;BME280;58452;59.418;17.962;2023-02-12T09:35:40;102232.22;;;0.76;82.90
70833;BME280;58452;59.418;17.962;2023-02-12T09:38:06;102229.75;;;0.73;82.94
70833;BME280;58452;59.418;17.962;2023-02-12T09:40:47;102232.53;;;0.64;83.95
70833;BME280;58452;59.418;17.962;2023-02-12T09:45:57;102202.78;;;0.69;83.96
70833;BME280;58452;59.418;17.962;2023-02-12T09:48:37;102208.91;;;0.62;84.41
70833;BME280;58452;59.418;17.962;2023-02-12T09:51:10;102209.44;;;0.73;84.37
70833;BME280;58452;59.418;17.962;2023-02-12T09:53:39;102215.09;;;0.83;84.23
70833;BME280;58452;59.418;17.962;2023-02-12T09:56:12;102194.34;;;0.67;84.89
70833;BME280;58452;59.418;17.962;2023-02-12T09:58:45;102195.06;;;0.72;84.58
70833;BME280;58452;59.418;17.962;2023-02-12T10:01:14;102203.09;;;0.88;84.61
70833;BME280;58452;59.418;17.962;2023-02-12T10:03:40;102195.09;;;1.00;84.86
70833;BME280;58452;59.418;17.962;2023-02-12T10:08:50;102185.00;;;0.97;84.85
70833;BME280;58452;59.418;17.962;2023-02-12T10:17:06;102177.72;;;0.86;85.37
70833;BME280;58452;59.418;17.962;2023-02-12T10:25:11;102168.78;;;1.29;84.79
70833;BME280;58452;59.418;17.962;2023-02-12T10:27:50;102166.34;;;1.26;84.83
70833;BME280;58452;59.418;17.962;2023-02-12T10:30:41;102164.78;;;1.22;84.40
70833;BME280;58452;59.418;17.962;2023-02-12T10:33:15;102159.22;;;1.37;84.21
70833;BME280;58452;59.418;17.962;2023-02-12T10:35:50;102160.50;;;1.50;83.71
70833;BME280;58452;59.418;17.962;2023-02-12T10:38:23;102156.16;;;1.54;83.57
70833;BME280;58452;59.418;17.962;2023-02-12T10:40:50;102158.72;;;1.52;83.79
70833;BME280;58452;59.418;17.962;2023-02-12T10:43:19;102159.53;;;1.54;83.82
70833;BME280;58452;59.418;17.962;2023-02-12T10:45:44;102161.38;;;1.49;83.60
70833;BME280;58452;59.418;17.962;2023-02-12T10:48:18;102153.53;;;1.55;83.78
70833;BME280;58452;59.418;17.962;2023-02-12T10:56:24;102158.97;;;1.44;84.82
70833;BME280;58452;59.418;17.962;2023-02-12T10:58:53;102148.75;;;1.46;84.67
70833;BME280;58452;59.418;17.962;2023-02-12T11:01:29;102150.41;;;1.47;84.73
70833;BME280;58452;59.418;17.962;2023-02-12T11:03:57;102150.59;;;1.41;85.14
70833;BME280;58452;59.418;17.962;2023-02-12T11:06:27;102149.63;;;1.45;84.92
70833;BME280;58452;59.418;17.962;2023-02-12T11:08:53;102140.44;;;1.41;84.87
70833;BME280;58452;59.418;17.962;2023-02-12T11:11:26;102142.34;;;1.34;85.68
70833;BME280;58452;59.418;17.962;2023-02-12T11:13:59;102137.19;;;1.36;86.06
70833;BME280;58452;59.418;17.962;2023-02-12T11:16:29;102135.94;;;1.49;85.55
70833;BME280;58452;59.418;17.962;2023-02-12T11:19:04;102133.25;;;1.54;85.10
70833;BME280;58452;59.418;17.962;2023-02-12T11:21:31;102128.81;;;1.59;85.40
70833;BME280;58452;59.418;17.962;2023-02-12T11:23:57;102127.69;;;1.67;85.00
70833;BME280;58452;59.418;17.962;2023-02-12T11:26:42;102128.81;;;1.59;84.91
70833;BME280;58452;59.418;17.962;2023-02-12T11:29:19;102130.09;;;1.72;85.29
70833;BME280;58452;59.418;17.962;2023-02-12T11:32:15;102124.69;;;1.81;84.51
70833;BME280;58452;59.418;17.962;2023-02-12T11:34:41;102126.00;;;1.68;84.99
70833;BME280;58452;59.418;17.962;2023-02-12T11:37:15;102115.56;;;1.75;84.89
70833;BME280;58452;59.418;17.962;2023-02-12T11:39:46;102125.75;;;1.75;84.89
70833;BME280;58452;59.418;17.962;2023-02-12T11:42:19;102119.72;;;1.78;85.21
70833;BME280;58452;59.418;17.962;2023-02-12T11:44:57;102117.88;;;1.81;85.03
70833;BME280;58452;59.418;17.962;2023-02-12T11:49:52;102111.06;;;1.83;84.92
70833;BME280;58452;59.418;17.962;2023-02-12T11:52:22;102103.91;;;1.93;84.81
70833;BME280;58452;59.418;17.962;2023-02-12T11:54:50;102107.41;;;1.90;84.59
70833;BME280;58452;59.418;17.962;2023-02-12T11:57:38;102107.19;;;1.96;84.45
70833;BME280;58452;59.418;17.962;2023-02-12T12:00:18;102101.88;;;2.03;84.45
70833;BME280;58452;59.418;17.962;2023-02-12T12:03:24;102096.34;;;2.15;84.83
70833;BME280;58452;59.418;17.962;2023-02-12T12:05:53;102093.81;;;2.15;84.20
70833;BME280;58452;59.418;17.962;2023-02-12T12:08:39;102093.91;;;2.12;84.11
70833;BME280;58452;59.418;17.962;2023-02-12T12:11:17;102097.94;;;2.17;84.02
70833;BME280;58452;59.418;17.962;2023-02-12T12:13:55;102096.19;;;2.19;84.03
70833;BME280;58452;59.418;17.962;2023-02-12T12:19:20;102101.22;;;2.21;84.48
70833;BME280;58452;59.418;17.962;2023-02-12T12:22:29;102105.94;;;2.31;83.90
70833;BME280;58452;59.418;17.962;2023-02-12T12:27:51;102114.78;;;2.21;84.04
70833;BME280;58452;59.418;17.962;2023-02-12T12:30:40;102102.13;;;2.20;84.43
70833;BME280;58452;59.418;17.962;2023-02-12T12:33:19;102114.59;;;2.27;84.20
70833;BME280;58452;59.418;17.962;2023-02-12T12:47:31;102109.97;;;2.37;83.93
70833;BME280;58452;59.418;17.962;2023-02-12T13:02:00;102097.31;;;2.57;84.06
70833;BME280;58452;59.418;17.962;2023-02-12T13:12:30;102102.66;;;2.51;83.97
70833;BME280;58452;59.418;17.962;2023-02-12T13:15:24;102100.66;;;2.59;83.54
70833;BME280;58452;59.418;17.962;2023-02-12T13:23:49;102104.44;;;2.49;83.92
70833;BME280;58452;59.418;17.962;2023-02-12T13:26:31;102108.31;;;2.59;83.92
70833;BME280;58452;59.418;17.962;2023-02-12T13:29:24;102098.66;;;2.67;83.49
70833;BME280;58452;59.418;17.962;2023-02-12T13:31:57;102103.75;;;2.67;83.19
70833;BME280;58452;59.418;17.962;2023-02-12T13:34:26;102097.31;;;2.57;83.37
70833;BME280;58452;59.418;17.962;2023-02-12T13:36:54;102097.44;;;2.54;83.63
70833;BME280;58452;59.418;17.962;2023-02-12T13:39:38;102102.38;;;2.59;83.65
70833;BME280;58452;59.418;17.962;2023-02-12T13:45:20;102111.19;;;2.50;84.31
70833;BME280;58452;59.418;17.962;2023-02-12T13:55:21;102118.47;;;2.37;85.08
70833;BME280;58452;59.418;17.962;2023-02-12T13:58:49;102128.13;;;2.28;85.24
70833;BME280;58452;59.418;17.962;2023-02-12T14:01:07;102119.72;;;2.26;85.16
70833;BME280;58452;59.418;17.962;2023-02-12T14:03:35;102119.16;;;2.18;86.05
70833;BME280;58452;59.418;17.962;2023-02-12T14:06:13;102118.41;;;2.16;86.03
70833;BME280;58452;59.418;17.962;2023-02-12T14:08:45;102109.19;;;2.12;86.15
70833;BME280;58452;59.418;17.962;2023-02-12T14:11:18;102113.19;;;2.19;86.30
70833;BME280;58452;59.418;17.962;2023-02-12T14:16:41;102118.06;;;2.02;87.10
70833;BME280;58452;59.418;17.962;2023-02-12T14:22:55;102109.84;;;1.93;87.61
70833;BME280;58452;59.418;17.962;2023-02-12T14:27:53;102098.00;;;1.92;87.76
70833;BME280;58452;59.418;17.962;2023-02-12T14:30:34;102098.97;;;1.88;88.00
70833;BME280;58452;59.418;17.962;2023-02-12T14:38:02;102105.06;;;1.84;88.32
70833;BME280;58452;59.418;17.962;2023-02-12T14:43:17;102107.59;;;1.84;88.14
70833;BME280;58452;59.418;17.962;2023-02-12T14:45:47;102111.91;;;1.82;88.40
70833;BME280;58452;59.418;17.962;2023-02-12T14:51:04;102104.94;;;1.87;88.86
70833;BME280;58452;59.418;17.962;2023-02-12T14:53:34;102118.69;;;1.83;88.71
70833;BME280;58452;59.418;17.962;2023-02-12T14:56:02;102110.97;;;1.85;88.48
70833;BME280;58452;59.418;17.962;2023-02-12T14:58:28;102118.34;;;1.92;88.32
70833;BME280;58452;59.418;17.962;2023-02-12T15:00:58;102112.94;;;1.77;88.94
70833;BME280;58452;59.418;17.962;2023-02-12T15:03:40;102118.69;;;1.83;89.14
70833;BME280;58452;59.418;17.962;2023-02-12T15:19:01;102117.03;;;1.56;89.92
70833;BME280;58452;59.418;17.962;2023-02-12T15:21:31;102123.84;;;1.56;90.96
70833;BME280;58452;59.418;17.962;2023-02-12T15:26:32;102122.13;;;1.56;91.27